sensor_id;sensor_type;location;lat;lon;timestamp;P1;durP1;ratioP1;P2;durP2;ratioP2
74269;SDS011;62754;48.252;11.654;2023-05-10T00:01:43;3.03;;;1.15;;
74269;SDS011;62754;48.252;11.654;2023-05-10T00:04:11;2.15;;;1.17;;
74269;SDS011;62754;48.252;11.654;2023-05-10T00:06:37;3.35;;;1.10;;
74269;SDS011;62754;48.252;11.654;2023-05-10T00:09:05;2.40;;;1.10;;
74269;SDS011;62754;48.252;11.654;2023-05-10T00:11:35;2.70;;;1.20;;
74269;SDS011;62754;48.252;11.654;2023-05-10T00:14:03;3.63;;;1.15;;
74269;SDS011;62754;48.252;11.654;2023-05-10T00:16:34;5.95;;;1.35;;
74269;SDS011;62754;48.252;11.654;2023-05-10T00:19:00;3.80;;;1.05;;
74269;SDS011;62754;48.252;11.654;2023-05-10T00:21:25;1.70;;;0.82;;
74269;SDS011;62754;48.252;11.654;2023-05-10T00:23:51;2.13;;;1.13;;
74269;SDS011;62754;48.252;11.654;2023-05-10T00:26:19;2.30;;;1.10;;
74269;SDS011;62754;48.252;11.654;2023-05-10T00:28:55;4.13;;;1.13;;
74269;SDS011;62754;48.252;11.654;2023-05-10T00:31:23;2.40;;;1.00;;
74269;SDS011;62754;48.252;11.654;2023-05-10T00:33:51;2.60;;;0.90;;
74269;SDS011;62754;48.252;11.654;2023-05-10T00:36:19;2.53;;;1.00;;
74269;SDS011;62754;48.252;11.654;2023-05-10T00:38:45;2.28;;;1.08;;
74269;SDS011;62754;48.252;11.654;2023-05-10T00:41:11;2.40;;;1.20;;
74269;SDS011;62754;48.252;11.654;2023-05-10T00:43:37;2.08;;;0.80;;
74269;SDS011;62754;48.252;11.654;2023-05-10T00:46:03;2.35;;;1.10;;
74269;SDS011;62754;48.252;11.654;2023-05-10T00:48:29;1.88;;;0.95;;
74269;SDS011;62754;48.252;11.654;2023-05-10T00:50:59;2.75;;;1.00;;
74269;SDS011;62754;48.252;11.654;2023-05-10T00:53:26;1.58;;;0.82;;
74269;SDS011;62754;48.252;11.654;2023-05-10T00:55:52;2.42;;;1.10;;
74269;SDS011;62754;48.252;11.654;2023-05-10T00:58:20;2.30;;;1.13;;
74269;SDS011;62754;48.252;11.654;2023-05-10T01:00:46;1.80;;;0.90;;
74269;SDS011;62754;48.252;11.654;2023-05-10T01:03:15;4.72;;;1.00;;
74269;SDS011;62754;48.252;11.654;2023-05-10T01:05:41;2.78;;;1.00;;
74269;SDS011;62754;48.252;11.654;2023-05-10T01:08:09;2.28;;;0.98;;
74269;SDS011;62754;48.252;11.654;2023-05-10T01:10:35;2.50;;;0.60;;
74269;SDS011;62754;48.252;11.654;2023-05-10T01:13:01;2.33;;;0.90;;
74269;SDS011;62754;48.252;11.654;2023-05-10T01:15:29;2.65;;;0.80;;
74269;SDS011;62754;48.252;11.654;2023-05-10T01:17:56;1.92;;;1.05;;
74269;SDS011;62754;48.252;11.654;2023-05-10T01:20:25;2.05;;;0.90;;
74269;SDS011;62754;48.252;11.654;2023-05-10T01:34:28;1.65;;;0.63;;
74269;SDS011;62754;48.252;11.654;2023-05-10T01:37:11;1.15;;;0.60;;
74269;SDS011;62754;48.252;11.654;2023-05-10T01:39:50;1.60;;;0.65;;
74269;SDS011;62754;48.252;11.654;2023-05-10T01:42:29;1.95;;;0.70;;
74269;SDS011;62754;48.252;11.654;2023-05-10T01:45:19;1.77;;;0.85;;
74269;SDS011;62754;48.252;11.654;2023-05-10T01:47:54;2.33;;;1.02;;
74269;SDS011;62754;48.252;11.654;2023-05-10T01:50:38;1.70;;;0.70;;
74269;SDS011;62754;48.252;11.654;2023-05-10T01:53:11;2.53;;;0.80;;
74269;SDS011;62754;48.252;11.654;2023-05-10T01:55:43;1.85;;;0.75;;
74269;SDS011;62754;48.252;11.654;2023-05-10T01:58:17;1.65;;;0.70;;
74269;SDS011;62754;48.252;11.654;2023-05-10T02:00:48;1.38;;;0.55;;
74269;SDS011;62754;48.252;11.654;2023-05-10T02:03:16;1.40;;;0.60;;
74269;SDS011;62754;48.252;11.654;2023-05-10T02:05:43;1.63;;;0.50;;
74269;SDS011;62754;48.252;11.654;2023-05-10T02:08:13;1.40;;;0.50;;
74269;SDS011;62754;48.252;11.654;2023-05-10T02:10:45;2.17;;;0.60;;
74269;SDS011;62754;48.252;11.654;2023-05-10T02:13:14;1.80;;;0.52;;
74269;SDS011;62754;48.252;11.654;2023-05-10T02:15:42;1.20;;;0.47;;
74269;SDS011;62754;48.252;11.654;2023-05-10T02:18:09;1.40;;;0.40;;
74269;SDS011;62754;48.252;11.654;2023-05-10T02:20:39;3.08;;;0.52;;
74269;SDS011;62754;48.252;11.654;2023-05-10T02:23:08;0.82;;;0.40;;
74269;SDS011;62754;48.252;11.654;2023-05-10T02:25:37;3.08;;;0.60;;
74269;SDS011;62754;48.252;11.654;2023-05-10T02:28:04;1.15;;;0.50;;
74269;SDS011;62754;48.252;11.654;2023-05-10T02:30:34;2.10;;;0.40;;
74269;SDS011;62754;48.252;11.654;2023-05-10T02:33:01;1.67;;;0.50;;
74269;SDS011;62754;48.252;11.654;2023-05-10T02:35:33;1.65;;;0.45;;
74269;SDS011;62754;48.252;11.654;2023-05-10T02:38:02;0.65;;;0.30;;
74269;SDS011;62754;48.252;11.654;2023-05-10T02:40:30;1.20;;;0.50;;
74269;SDS011;62754;48.252;11.654;2023-05-10T02:42:56;0.47;;;0.30;;
74269;SDS011;62754;48.252;11.654;2023-05-10T02:45:25;0.98;;;0.32;;
74269;SDS011;62754;48.252;11.654;2023-05-10T02:47:54;1.63;;;0.50;;
74269;SDS011;62754;48.252;11.654;2023-05-10T02:50:21;0.60;;;0.30;;
74269;SDS011;62754;48.252;11.654;2023-05-10T02:52:51;2.08;;;0.50;;
74269;SDS011;62754;48.252;11.654;2023-05-10T02:55:22;1.40;;;0.60;;
74269;SDS011;62754;48.252;11.654;2023-05-10T02:57:56;0.98;;;0.40;;
74269;SDS011;62754;48.252;11.654;2023-05-10T03:00:25;0.80;;;0.50;;
74269;SDS011;62754;48.252;11.654;2023-05-10T03:02:54;0.88;;;0.40;;
74269;SDS011;62754;48.252;11.654;2023-05-10T03:05:21;2.42;;;0.63;;
74269;SDS011;62754;48.252;11.654;2023-05-10T03:07:50;1.55;;;0.50;;
74269;SDS011;62754;48.252;11.654;2023-05-10T03:10:19;2.10;;;0.50;;
74269;SDS011;62754;48.252;11.654;2023-05-10T03:15:19;0.88;;;0.50;;
74269;SDS011;62754;48.252;11.654;2023-05-10T03:20:47;3.38;;;0.65;;
74269;SDS011;62754;48.252;11.654;2023-05-10T03:25:50;2.50;;;0.65;;
74269;SDS011;62754;48.252;11.654;2023-05-10T03:28:17;2.85;;;0.70;;
74269;SDS011;62754;48.252;11.654;2023-05-10T03:30:46;1.50;;;0.57;;
74269;SDS011;62754;48.252;11.654;2023-05-10T03:33:12;1.95;;;0.52;;
74269;SDS011;62754;48.252;11.654;2023-05-10T03:35:38;2.35;;;0.55;;
74269;SDS011;62754;48.252;11.654;2023-05-10T03:38:09;2.95;;;0.55;;
74269;SDS011;62754;48.252;11.654;2023-05-10T03:40:37;1.98;;;0.57;;
74269;SDS011;62754;48.252;11.654;2023-05-10T03:43:03;0.95;;;0.47;;
74269;SDS011;62754;48.252;11.654;2023-05-10T03:45:31;1.77;;;0.60;;
74269;SDS011;62754;48.252;11.654;2023-05-10T03:47:59;1.08;;;0.43;;
74269;SDS011;62754;48.252;11.654;2023-05-10T03:50:29;1.23;;;0.45;;
74269;SDS011;62754;48.252;11.654;2023-05-10T03:52:58;1.63;;;0.50;;
74269;SDS011;62754;48.252;11.654;2023-05-10T03:55:23;4.47;;;0.80;;
74269;SDS011;62754;48.252;11.654;2023-05-10T03:57:51;2.83;;;0.50;;
74269;SDS011;62754;48.252;11.654;2023-05-10T04:00:22;1.33;;;0.50;;
74269;SDS011;62754;48.252;11.654;2023-05-10T04:02:47;1.02;;;0.50;;
74269;SDS011;62754;48.252;11.654;2023-05-10T04:05:13;1.30;;;0.50;;
74269;SDS011;62754;48.252;11.654;2023-05-10T04:07:39;0.93;;;0.47;;
74269;SDS011;62754;48.252;11.654;2023-05-10T04:10:05;1.20;;;0.60;;
74269;SDS011;62754;48.252;11.654;2023-05-10T04:12:31;2.30;;;0.70;;
74269;SDS011;62754;48.252;11.654;2023-05-10T04:14:59;0.73;;;0.40;;
74269;SDS011;62754;48.252;11.654;2023-05-10T04:17:25;1.10;;;0.40;;
74269;SDS011;62754;48.252;11.654;2023-05-10T04:19:50;1.20;;;0.40;;
74269;SDS011;62754;48.252;11.654;2023-05-10T04:22:19;1.20;;;0.40;;
74269;SDS011;62754;48.252;11.654;2023-05-10T04:24:44;1.67;;;0.50;;
74269;SDS011;62754;48.252;11.654;2023-05-10T04:27:15;2.28;;;0.52;;
74269;SDS011;62754;48.252;11.654;2023-05-10T04:29:43;1.30;;;0.45;;
74269;SDS011;62754;48.252;11.654;2023-05-10T04:32:11;2.70;;;0.60;;
74269;SDS011;62754;48.252;11.654;2023-05-10T04:34:39;0.95;;;0.55;;
74269;SDS011;62754;48.252;11.654;2023-05-10T04:37:07;1.40;;;0.40;;
74269;SDS011;62754;48.252;11.654;2023-05-10T04:39:32;1.73;;;0.50;;
74269;SDS011;62754;48.252;11.654;2023-05-10T04:42:03;1.10;;;0.50;;
74269;SDS011;62754;48.252;11.654;2023-05-10T04:44:29;1.02;;;0.45;;
74269;SDS011;62754;48.252;11.654;2023-05-10T04:46:55;0.93;;;0.43;;
74269;SDS011;62754;48.252;11.654;2023-05-10T04:49:24;1.63;;;0.40;;
74269;SDS011;62754;48.252;11.654;2023-05-10T04:51:52;1.00;;;0.50;;
74269;SDS011;62754;48.252;11.654;2023-05-10T04:54:23;1.15;;;0.50;;
74269;SDS011;62754;48.252;11.654;2023-05-10T04:56:49;2.67;;;0.50;;
74269;SDS011;62754;48.252;11.654;2023-05-10T04:59:17;1.25;;;0.60;;
74269;SDS011;62754;48.252;11.654;2023-05-10T05:01:45;1.02;;;0.50;;
74269;SDS011;62754;48.252;11.654;2023-05-10T05:04:13;1.13;;;0.43;;
74269;SDS011;62754;48.252;11.654;2023-05-10T05:06:44;0.55;;;0.25;;
74269;SDS011;62754;48.252;11.654;2023-05-10T05:09:10;1.05;;;0.40;;
74269;SDS011;62754;48.252;11.654;2023-05-10T05:11:40;0.82;;;0.40;;
74269;SDS011;62754;48.252;11.654;2023-05-10T05:14:06;0.60;;;0.30;;
74269;SDS011;62754;48.252;11.654;2023-05-10T05:16:34;2.30;;;0.30;;
74269;SDS011;62754;48.252;11.654;2023-05-10T05:19:00;0.50;;;0.25;;
74269;SDS011;62754;48.252;11.654;2023-05-10T05:21:25;0.65;;;0.28;;
74269;SDS011;62754;48.252;11.654;2023-05-10T05:23:51;1.30;;;0.30;;
74269;SDS011;62754;48.252;11.654;2023-05-10T05:26:17;0.40;;;0.20;;
74269;SDS011;62754;48.252;11.654;2023-05-10T05:28:43;1.02;;;0.30;;
74269;SDS011;62754;48.252;11.654;2023-05-10T05:31:08;2.45;;;0.40;;
74269;SDS011;62754;48.252;11.654;2023-05-10T05:33:34;0.57;;;0.20;;
74269;SDS011;62754;48.252;11.654;2023-05-10T05:36:00;1.52;;;0.45;;
74269;SDS011;62754;48.252;11.654;2023-05-10T05:38:29;1.98;;;0.30;;
74269;SDS011;62754;48.252;11.654;2023-05-10T05:40:55;1.02;;;0.28;;
74269;SDS011;62754;48.252;11.654;2023-05-10T05:43:22;0.73;;;0.20;;
74269;SDS011;62754;48.252;11.654;2023-05-10T05:45:51;1.55;;;0.40;;
74269;SDS011;62754;48.252;11.654;2023-05-10T05:48:17;1.80;;;0.50;;
74269;SDS011;62754;48.252;11.654;2023-05-10T05:50:43;1.10;;;0.50;;
74269;SDS011;62754;48.252;11.654;2023-05-10T05:53:09;1.92;;;0.50;;
74269;SDS011;62754;48.252;11.654;2023-05-10T05:55:34;0.85;;;0.30;;
74269;SDS011;62754;48.252;11.654;2023-05-10T05:58:02;1.05;;;0.30;;
74269;SDS011;62754;48.252;11.654;2023-05-10T06:00:28;2.50;;;0.40;;
74269;SDS011;62754;48.252;11.654;2023-05-10T06:02:56;1.58;;;0.40;;
74269;SDS011;62754;48.252;11.654;2023-05-10T06:05:22;1.45;;;0.40;;
74269;SDS011;62754;48.252;11.654;2023-05-10T06:07:50;1.88;;;0.63;;
74269;SDS011;62754;48.252;11.654;2023-05-10T06:10:16;1.40;;;0.60;;
74269;SDS011;62754;48.252;11.654;2023-05-10T06:12:44;1.90;;;0.50;;
74269;SDS011;62754;48.252;11.654;2023-05-10T06:15:13;1.50;;;0.50;;
74269;SDS011;62754;48.252;11.654;2023-05-10T06:17:40;1.83;;;0.70;;
74269;SDS011;62754;48.252;11.654;2023-05-10T06:20:09;2.72;;;0.63;;
74269;SDS011;62754;48.252;11.654;2023-05-10T06:22:38;4.10;;;0.70;;
74269;SDS011;62754;48.252;11.654;2023-05-10T06:25:06;1.65;;;0.55;;
74269;SDS011;62754;48.252;11.654;2023-05-10T06:27:35;2.17;;;0.60;;
74269;SDS011;62754;48.252;11.654;2023-05-10T06:30:03;6.18;;;0.90;;
74269;SDS011;62754;48.252;11.654;2023-05-10T06:32:29;1.85;;;0.70;;
74269;SDS011;62754;48.252;11.654;2023-05-10T06:34:58;1.67;;;0.80;;
74269;SDS011;62754;48.252;11.654;2023-05-10T06:37:28;3.63;;;1.45;;
74269;SDS011;62754;48.252;11.654;2023-05-10T06:39:54;2.80;;;1.23;;
74269;SDS011;62754;48.252;11.654;2023-05-10T06:42:21;3.97;;;0.93;;
74269;SDS011;62754;48.252;11.654;2023-05-10T06:44:47;2.47;;;0.63;;
74269;SDS011;62754;48.252;11.654;2023-05-10T06:47:18;2.17;;;0.82;;
74269;SDS011;62754;48.252;11.654;2023-05-10T06:49:43;1.98;;;0.93;;
74269;SDS011;62754;48.252;11.654;2023-05-10T06:52:11;2.03;;;0.80;;
74269;SDS011;62754;48.252;11.654;2023-05-10T06:54:40;2.75;;;0.98;;
74269;SDS011;62754;48.252;11.654;2023-05-10T06:57:08;3.17;;;1.00;;
74269;SDS011;62754;48.252;11.654;2023-05-10T06:59:38;3.25;;;1.02;;
74269;SDS011;62754;48.252;11.654;2023-05-10T07:02:06;3.05;;;1.30;;
74269;SDS011;62754;48.252;11.654;2023-05-10T07:04:32;3.45;;;1.02;;
74269;SDS011;62754;48.252;11.654;2023-05-10T07:06:58;3.17;;;1.05;;
74269;SDS011;62754;48.252;11.654;2023-05-10T07:09:23;1.98;;;0.93;;
74269;SDS011;62754;48.252;11.654;2023-05-10T07:11:51;4.53;;;0.90;;
74269;SDS011;62754;48.252;11.654;2023-05-10T07:14:20;2.45;;;0.85;;
74269;SDS011;62754;48.252;11.654;2023-05-10T07:16:48;3.47;;;1.02;;
74269;SDS011;62754;48.252;11.654;2023-05-10T07:19:16;2.00;;;0.88;;
74269;SDS011;62754;48.252;11.654;2023-05-10T07:21:44;2.63;;;0.80;;
74269;SDS011;62754;48.252;11.654;2023-05-10T07:24:12;2.90;;;0.85;;
74269;SDS011;62754;48.252;11.654;2023-05-10T07:26:40;2.03;;;0.60;;
74269;SDS011;62754;48.252;11.654;2023-05-10T07:29:06;1.45;;;0.73;;
74269;SDS011;62754;48.252;11.654;2023-05-10T07:31:34;3.10;;;0.73;;
74269;SDS011;62754;48.252;11.654;2023-05-10T07:34:02;1.42;;;0.70;;
74269;SDS011;62754;48.252;11.654;2023-05-10T07:36:29;2.03;;;0.95;;
74269;SDS011;62754;48.252;11.654;2023-05-10T07:38:55;2.13;;;1.00;;
74269;SDS011;62754;48.252;11.654;2023-05-10T07:41:21;1.33;;;0.70;;
74269;SDS011;62754;48.252;11.654;2023-05-10T07:43:47;4.47;;;0.82;;
74269;SDS011;62754;48.252;11.654;2023-05-10T07:46:12;1.90;;;0.75;;
74269;SDS011;62754;48.252;11.654;2023-05-10T07:48:38;2.42;;;0.73;;
74269;SDS011;62754;48.252;11.654;2023-05-10T07:51:04;2.05;;;0.52;;
74269;SDS011;62754;48.252;11.654;2023-05-10T07:53:32;1.58;;;0.73;;
74269;SDS011;62754;48.252;11.654;2023-05-10T07:56:19;1.75;;;0.80;;
74269;SDS011;62754;48.252;11.654;2023-05-10T07:58:53;1.75;;;0.65;;
74269;SDS011;62754;48.252;11.654;2023-05-10T08:01:19;2.60;;;0.80;;
74269;SDS011;62754;48.252;11.654;2023-05-10T08:03:47;1.85;;;0.80;;
74269;SDS011;62754;48.252;11.654;2023-05-10T08:06:19;1.65;;;0.80;;
74269;SDS011;62754;48.252;11.654;2023-05-10T08:08:46;3.42;;;0.55;;
74269;SDS011;62754;48.252;11.654;2023-05-10T08:11:15;7.22;;;0.77;;
74269;SDS011;62754;48.252;11.654;2023-05-10T08:13:47;1.10;;;0.68;;
74269;SDS011;62754;48.252;11.654;2023-05-10T08:16:16;2.58;;;0.70;;
74269;SDS011;62754;48.252;11.654;2023-05-10T08:18:47;1.02;;;0.50;;
74269;SDS011;62754;48.252;11.654;2023-05-10T08:21:13;1.73;;;0.85;;
74269;SDS011;62754;48.252;11.654;2023-05-10T08:26:08;2.60;;;0.60;;
74269;SDS011;62754;48.252;11.654;2023-05-10T08:28:38;2.55;;;0.75;;
74269;SDS011;62754;48.252;11.654;2023-05-10T08:31:04;1.73;;;0.60;;
74269;SDS011;62754;48.252;11.654;2023-05-10T08:33:30;3.78;;;0.80;;
74269;SDS011;62754;48.252;11.654;2023-05-10T08:35:58;1.23;;;0.47;;
74269;SDS011;62754;48.252;11.654;2023-05-10T08:38:28;1.77;;;0.60;;
74269;SDS011;62754;48.252;11.654;2023-05-10T08:41:04;1.20;;;0.43;;
74269;SDS011;62754;48.252;11.654;2023-05-10T08:43:30;3.65;;;0.75;;
74269;SDS011;62754;48.252;11.654;2023-05-10T08:46:01;1.10;;;0.47;;
74269;SDS011;62754;48.252;11.654;2023-05-10T08:48:30;1.48;;;0.60;;
74269;SDS011;62754;48.252;11.654;2023-05-10T08:50:59;2.92;;;0.80;;
74269;SDS011;62754;48.252;11.654;2023-05-10T08:53:28;2.20;;;0.70;;
74269;SDS011;62754;48.252;11.654;2023-05-10T08:56:00;1.00;;;0.60;;
74269;SDS011;62754;48.252;11.654;2023-05-10T08:58:31;1.13;;;0.55;;
74269;SDS011;62754;48.252;11.654;2023-05-10T09:01:01;2.28;;;0.60;;
74269;SDS011;62754;48.252;11.654;2023-05-10T09:03:27;1.33;;;0.50;;
74269;SDS011;62754;48.252;11.654;2023-05-10T09:05:56;1.95;;;0.40;;
74269;SDS011;62754;48.252;11.654;2023-05-10T09:08:23;1.52;;;0.50;;
74269;SDS011;62754;48.252;11.654;2023-05-10T09:10:49;1.20;;;0.50;;
74269;SDS011;62754;48.252;11.654;2023-05-10T09:13:15;2.08;;;0.60;;
74269;SDS011;62754;48.252;11.654;2023-05-10T09:15:45;5.50;;;0.63;;
74269;SDS011;62754;48.252;11.654;2023-05-10T09:18:11;1.50;;;0.50;;
74269;SDS011;62754;48.252;11.654;2023-05-10T09:20:41;1.42;;;0.50;;
74269;SDS011;62754;48.252;11.654;2023-05-10T09:23:12;1.77;;;0.57;;
74269;SDS011;62754;48.252;11.654;2023-05-10T09:25:43;1.08;;;0.40;;
74269;SDS011;62754;48.252;11.654;2023-05-10T09:28:11;0.80;;;0.40;;
74269;SDS011;62754;48.252;11.654;2023-05-10T09:30:39;1.63;;;0.30;;
74269;SDS011;62754;48.252;11.654;2023-05-10T09:33:07;2.45;;;0.50;;
74269;SDS011;62754;48.252;11.654;2023-05-10T09:35:32;1.65;;;0.50;;
74269;SDS011;62754;48.252;11.654;2023-05-10T09:38:01;1.75;;;0.50;;
74269;SDS011;62754;48.252;11.654;2023-05-10T09:40:30;0.98;;;0.45;;
74269;SDS011;62754;48.252;11.654;2023-05-10T09:45:31;1.80;;;0.57;;
74269;SDS011;62754;48.252;11.654;2023-05-10T09:48:01;1.83;;;0.50;;
74269;SDS011;62754;48.252;11.654;2023-05-10T09:50:28;2.53;;;0.50;;
74269;SDS011;62754;48.252;11.654;2023-05-10T09:52:56;2.40;;;0.70;;
74269;SDS011;62754;48.252;11.654;2023-05-10T09:55:38;1.38;;;0.80;;
74269;SDS011;62754;48.252;11.654;2023-05-10T09:58:08;1.88;;;0.63;;
74269;SDS011;62754;48.252;11.654;2023-05-10T10:00:37;1.65;;;0.80;;
74269;SDS011;62754;48.252;11.654;2023-05-10T10:05:39;3.17;;;0.70;;
74269;SDS011;62754;48.252;11.654;2023-05-10T10:08:08;3.58;;;0.80;;
74269;SDS011;62754;48.252;11.654;2023-05-10T10:10:34;2.20;;;0.80;;
74269;SDS011;62754;48.252;11.654;2023-05-10T10:13:03;1.75;;;0.90;;
74269;SDS011;62754;48.252;11.654;2023-05-10T10:15:31;2.05;;;1.00;;
74269;SDS011;62754;48.252;11.654;2023-05-10T10:18:00;2.13;;;0.70;;
74269;SDS011;62754;48.252;11.654;2023-05-10T10:20:28;1.73;;;0.60;;
74269;SDS011;62754;48.252;11.654;2023-05-10T10:22:54;2.53;;;1.40;;
74269;SDS011;62754;48.252;11.654;2023-05-10T10:25:20;3.17;;;1.10;;
74269;SDS011;62754;48.252;11.654;2023-05-10T10:33:02;1.42;;;0.55;;
74269;SDS011;62754;48.252;11.654;2023-05-10T10:35:47;2.45;;;0.60;;
74269;SDS011;62754;48.252;11.654;2023-05-10T10:38:15;1.42;;;0.82;;
74269;SDS011;62754;48.252;11.654;2023-05-10T10:40:46;1.52;;;0.90;;
74269;SDS011;62754;48.252;11.654;2023-05-10T10:43:27;1.60;;;0.70;;
74269;SDS011;62754;48.252;11.654;2023-05-10T10:46:13;1.63;;;0.73;;
74269;SDS011;62754;48.252;11.654;2023-05-10T10:48:39;1.77;;;0.80;;
74269;SDS011;62754;48.252;11.654;2023-05-10T10:51:08;2.50;;;0.88;;
74269;SDS011;62754;48.252;11.654;2023-05-10T10:53:38;2.97;;;1.55;;
74269;SDS011;62754;48.252;11.654;2023-05-10T10:56:08;3.47;;;1.10;;
74269;SDS011;62754;48.252;11.654;2023-05-10T10:58:38;2.67;;;1.27;;
74269;SDS011;62754;48.252;11.654;2023-05-10T11:01:14;1.88;;;1.00;;
74269;SDS011;62754;48.252;11.654;2023-05-10T11:03:54;3.03;;;1.42;;
74269;SDS011;62754;48.252;11.654;2023-05-10T11:06:40;3.22;;;0.82;;
74269;SDS011;62754;48.252;11.654;2023-05-10T11:09:09;2.33;;;0.80;;
74269;SDS011;62754;48.252;11.654;2023-05-10T11:11:36;3.17;;;1.27;;
74269;SDS011;62754;48.252;11.654;2023-05-10T11:14:14;3.55;;;1.00;;
74269;SDS011;62754;48.252;11.654;2023-05-10T11:16:44;2.25;;;1.00;;
74269;SDS011;62754;48.252;11.654;2023-05-10T11:19:15;3.53;;;0.98;;
74269;SDS011;62754;48.252;11.654;2023-05-10T11:24:15;1.60;;;0.85;;
74269;SDS011;62754;48.252;11.654;2023-05-10T11:26:45;2.28;;;1.10;;
74269;SDS011;62754;48.252;11.654;2023-05-10T11:29:12;3.20;;;1.05;;
74269;SDS011;62754;48.252;11.654;2023-05-10T11:31:42;2.00;;;1.27;;
74269;SDS011;62754;48.252;11.654;2023-05-10T11:34:09;2.47;;;1.15;;
74269;SDS011;62754;48.252;11.654;2023-05-10T11:36:39;3.40;;;1.70;;
74269;SDS011;62754;48.252;11.654;2023-05-10T11:39:07;3.65;;;1.45;;
74269;SDS011;62754;48.252;11.654;2023-05-10T11:41:33;5.00;;;2.10;;
74269;SDS011;62754;48.252;11.654;2023-05-10T11:43:58;3.13;;;1.40;;
74269;SDS011;62754;48.252;11.654;2023-05-10T11:46:42;2.28;;;1.35;;
74269;SDS011;62754;48.252;11.654;2023-05-10T11:49:10;2.75;;;1.27;;
74269;SDS011;62754;48.252;11.654;2023-05-10T11:51:38;3.80;;;1.00;;
74269;SDS011;62754;48.252;11.654;2023-05-10T11:54:07;2.78;;;1.48;;
74269;SDS011;62754;48.252;11.654;2023-05-10T11:56:37;2.97;;;0.82;;
74269;SDS011;62754;48.252;11.654;2023-05-10T11:59:06;2.03;;;0.73;;
74269;SDS011;62754;48.252;11.654;2023-05-10T12:01:32;2.05;;;0.60;;
74269;SDS011;62754;48.252;11.654;2023-05-10T12:04:01;3.85;;;0.70;;
74269;SDS011;62754;48.252;11.654;2023-05-10T12:06:30;1.92;;;0.80;;
74269;SDS011;62754;48.252;11.654;2023-05-10T12:09:01;2.38;;;0.73;;
74269;SDS011;62754;48.252;11.654;2023-05-10T12:11:31;3.10;;;1.17;;
74269;SDS011;62754;48.252;11.654;2023-05-10T12:13:59;3.33;;;0.73;;
74269;SDS011;62754;48.252;11.654;2023-05-10T12:16:25;1.77;;;0.70;;
74269;SDS011;62754;48.252;11.654;2023-05-10T12:18:57;2.03;;;0.80;;
74269;SDS011;62754;48.252;11.654;2023-05-10T12:21:26;2.20;;;1.10;;
74269;SDS011;62754;48.252;11.654;2023-05-10T12:23:54;2.55;;;0.70;;
74269;SDS011;62754;48.252;11.654;2023-05-10T12:26:24;2.75;;;0.80;;
74269;SDS011;62754;48.252;11.654;2023-05-10T12:28:53;1.48;;;0.52;;
74269;SDS011;62754;48.252;11.654;2023-05-10T12:31:48;2.20;;;0.80;;
74269;SDS011;62754;48.252;11.654;2023-05-10T12:36:51;1.80;;;0.80;;
74269;SDS011;62754;48.252;11.654;2023-05-10T12:39:25;2.45;;;0.40;;
74269;SDS011;62754;48.252;11.654;2023-05-10T12:41:52;1.17;;;0.50;;
74269;SDS011;62754;48.252;11.654;2023-05-10T12:44:22;1.77;;;0.30;;
74269;SDS011;62754;48.252;11.654;2023-05-10T12:46:50;1.27;;;0.35;;
74269;SDS011;62754;48.252;11.654;2023-05-10T12:49:15;2.20;;;0.47;;
74269;SDS011;62754;48.252;11.654;2023-05-10T12:51:43;1.38;;;0.43;;
74269;SDS011;62754;48.252;11.654;2023-05-10T12:54:11;2.33;;;0.52;;
74269;SDS011;62754;48.252;11.654;2023-05-10T12:56:42;1.35;;;0.45;;
74269;SDS011;62754;48.252;11.654;2023-05-10T12:59:08;1.40;;;0.50;;
74269;SDS011;62754;48.252;11.654;2023-05-10T13:01:37;1.33;;;0.45;;
74269;SDS011;62754;48.252;11.654;2023-05-10T13:04:05;1.30;;;0.50;;
74269;SDS011;62754;48.252;11.654;2023-05-10T13:06:30;1.70;;;0.50;;
74269;SDS011;62754;48.252;11.654;2023-05-10T13:08:56;0.75;;;0.40;;
74269;SDS011;62754;48.252;11.654;2023-05-10T13:11:24;1.38;;;0.60;;
74269;SDS011;62754;48.252;11.654;2023-05-10T13:13:50;1.15;;;0.40;;
74269;SDS011;62754;48.252;11.654;2023-05-10T13:16:20;2.22;;;0.70;;
74269;SDS011;62754;48.252;11.654;2023-05-10T13:18:46;2.22;;;0.60;;
74269;SDS011;62754;48.252;11.654;2023-05-10T13:21:14;1.55;;;0.50;;
74269;SDS011;62754;48.252;11.654;2023-05-10T13:23:42;2.05;;;0.52;;
74269;SDS011;62754;48.252;11.654;2023-05-10T13:26:10;3.90;;;0.70;;
74269;SDS011;62754;48.252;11.654;2023-05-10T13:28:38;2.60;;;0.60;;
74269;SDS011;62754;48.252;11.654;2023-05-10T13:31:04;3.72;;;0.90;;
74269;SDS011;62754;48.252;11.654;2023-05-10T13:33:32;1.30;;;0.47;;
74269;SDS011;62754;48.252;11.654;2023-05-10T13:36:00;1.85;;;0.32;;
74269;SDS011;62754;48.252;11.654;2023-05-10T13:38:26;1.10;;;0.40;;
74269;SDS011;62754;48.252;11.654;2023-05-10T13:40:54;1.45;;;0.50;;
74269;SDS011;62754;48.252;11.654;2023-05-10T13:43:19;2.35;;;0.47;;
74269;SDS011;62754;48.252;11.654;2023-05-10T13:45:45;1.25;;;0.40;;
74269;SDS011;62754;48.252;11.654;2023-05-10T13:48:11;1.65;;;0.50;;
74269;SDS011;62754;48.252;11.654;2023-05-10T13:50:41;1.88;;;0.60;;
74269;SDS011;62754;48.252;11.654;2023-05-10T13:53:07;1.65;;;0.50;;
74269;SDS011;62754;48.252;11.654;2023-05-10T13:55:35;1.13;;;0.38;;
74269;SDS011;62754;48.252;11.654;2023-05-10T13:58:03;1.10;;;0.57;;
74269;SDS011;62754;48.252;11.654;2023-05-10T14:00:33;1.20;;;0.43;;
74269;SDS011;62754;48.252;11.654;2023-05-10T14:03:01;2.30;;;0.45;;
74269;SDS011;62754;48.252;11.654;2023-05-10T14:05:27;1.20;;;0.50;;
74269;SDS011;62754;48.252;11.654;2023-05-10T14:07:55;1.75;;;0.80;;
74269;SDS011;62754;48.252;11.654;2023-05-10T14:10:23;1.40;;;0.50;;
74269;SDS011;62754;48.252;11.654;2023-05-10T14:12:54;2.40;;;0.50;;
74269;SDS011;62754;48.252;11.654;2023-05-10T14:15:22;1.38;;;0.50;;
74269;SDS011;62754;48.252;11.654;2023-05-10T14:17:47;2.28;;;0.80;;
74269;SDS011;62754;48.252;11.654;2023-05-10T14:20:16;1.27;;;0.60;;
74269;SDS011;62754;48.252;11.654;2023-05-10T14:22:41;2.00;;;0.90;;
74269;SDS011;62754;48.252;11.654;2023-05-10T14:25:10;2.10;;;0.80;;
74269;SDS011;62754;48.252;11.654;2023-05-10T14:27:38;3.88;;;0.90;;
74269;SDS011;62754;48.252;11.654;2023-05-10T14:30:09;2.30;;;1.08;;
74269;SDS011;62754;48.252;11.654;2023-05-10T14:32:37;2.78;;;1.40;;
74269;SDS011;62754;48.252;11.654;2023-05-10T14:35:03;6.55;;;1.00;;
74269;SDS011;62754;48.252;11.654;2023-05-10T14:37:29;4.68;;;1.35;;
74269;SDS011;62754;48.252;11.654;2023-05-10T14:39:59;4.20;;;1.75;;
74269;SDS011;62754;48.252;11.654;2023-05-10T14:42:25;4.72;;;1.50;;
74269;SDS011;62754;48.252;11.654;2023-05-10T14:44:51;3.67;;;1.33;;
74269;SDS011;62754;48.252;11.654;2023-05-10T14:47:17;4.03;;;1.20;;
74269;SDS011;62754;48.252;11.654;2023-05-10T14:49:42;3.33;;;1.00;;
74269;SDS011;62754;48.252;11.654;2023-05-10T14:52:08;1.75;;;0.90;;
74269;SDS011;62754;48.252;11.654;2023-05-10T14:54:36;1.85;;;0.80;;
74269;SDS011;62754;48.252;11.654;2023-05-10T14:57:07;2.17;;;1.02;;
74269;SDS011;62754;48.252;11.654;2023-05-10T14:59:35;2.28;;;1.02;;
74269;SDS011;62754;48.252;11.654;2023-05-10T15:02:03;2.42;;;0.82;;
74269;SDS011;62754;48.252;11.654;2023-05-10T15:04:31;2.08;;;0.88;;
74269;SDS011;62754;48.252;11.654;2023-05-10T15:06:56;3.30;;;0.70;;
74269;SDS011;62754;48.252;11.654;2023-05-10T15:09:25;1.13;;;0.60;;
74269;SDS011;62754;48.252;11.654;2023-05-10T15:11:50;3.40;;;0.57;;
74269;SDS011;62754;48.252;11.654;2023-05-10T15:14:19;1.35;;;0.50;;
74269;SDS011;62754;48.252;11.654;2023-05-10T15:16:44;1.67;;;0.50;;
74269;SDS011;62754;48.252;11.654;2023-05-10T15:19:10;2.38;;;0.77;;